Terminal Aerodrome Forecast
Issued by NWS Charleston, WV

Current Version | Previous Version | Graphics & Text | Print | Product List | Glossary On
Versions: 1 2 3 4 5 6 7 8 9 10 11 12 13 14 15 16 17 18 19 20 21 22 23 24 25 26
000
FTUS41 KRLX 260200 AAA
TAFEKN
TAF AMD
KEKN 260249Z 2603/2624 00000KT P6SM BKN250
      TEMPO 2606/2610 5SM BR
     FM261100 00000KT P6SM BKN120
     FM261600 23004KT P6SM SCT035
     FM262000 24007KT P6SM SCT045=

USA.gov is the U.S. government's official web portal to all federal, state and local government web resources and services.